Time;durP1;ratioP1;P1;durP2;ratioP2;P2;SDS_P1;SDS_P2;PMS_P1;PMS_P2;Temp;Humidity;BMP_temperature;BMP_pressure;BME280_temperature;BME280_humidity;BME280_pressure;Samples;Min_cycle;Max_cycle;Signal;HPM_P1;HPM_P2
2022/12/28 00:16:59;;;;;;;;;;;5.80;99.90;;;;;;6310299;22;19915;-94
2022/12/28 03:38:04;;;;;;;;;;;6.10;99.90;;;;;;6275858;22;19915;-91
2022/12/28 03:43:40;;;;;;;;;;;6.20;99.90;;;;;;6249818;22;19915;-91
2022/12/28 03:46:13;;;;;;;;;;;6.20;99.90;;;;;;6225212;22;19942;-92
2022/12/28 06:51:41;;;;;;;;;;;7.90;99.90;;;;;;6308032;22;19915;-94
2022/12/28 06:54:07;;;;;;;;;;;8.00;99.90;;;;;;6257209;22;19915;-94
2022/12/28 06:56:36;;;;;;;;;;;8.00;99.90;;;;;;6256764;22;19976;-95
2022/12/28 13:10:18;;;;;;;;;;;9.10;99.90;;;;;;6275020;22;19939;-92
2022/12/28 13:12:44;;;;;;;;;;;9.20;99.90;;;;;;6223954;22;19916;-89
2022/12/28 13:15:17;;;;;;;;;;;9.10;99.90;;;;;;6225178;22;19916;-91
2022/12/28 13:17:58;;;;;;;;;;;9.10;99.90;;;;;;6225562;22;19986;-91
2022/12/28 13:20:24;;;;;;;;;;;9.10;99.90;;;;;;6225344;22;19922;-94
2022/12/28 13:51:12;;;;;;;;;;;9.10;99.90;;;;;;6251180;22;19915;-96
2022/12/28 13:53:54;;;;;;;;;;;9.10;99.90;;;;;;6201855;23;20356;-96
2022/12/28 20:57:23;;;;;;;;;;;8.90;99.90;;;;;;6276245;22;19915;-91
2022/12/28 20:59:48;;;;;;;;;;;8.90;99.90;;;;;;6228950;22;19915;-90
2022/12/28 21:02:14;;;;;;;;;;;9.00;99.90;;;;;;6203844;22;20320;-89
2022/12/28 21:04:39;;;;;;;;;;;9.00;99.90;;;;;;6204604;22;20325;-92
2022/12/28 21:07:05;;;;;;;;;;;9.00;99.90;;;;;;6204156;22;19954;-92
2022/12/28 21:09:33;;;;;;;;;;;9.10;99.90;;;;;;6227849;22;20038;-94
2022/12/28 21:11:59;;;;;;;;;;;9.00;99.90;;;;;;6227975;22;20252;-91
2022/12/28 21:14:24;;;;;;;;;;;9.10;99.90;;;;;;6228970;22;19915;-90
2022/12/28 21:16:50;;;;;;;;;;;9.10;99.90;;;;;;6229183;22;20233;-91
2022/12/28 21:19:16;;;;;;;;;;;9.10;99.90;;;;;;6229103;22;19922;-91
2022/12/28 21:21:41;;;;;;;;;;;9.10;99.90;;;;;;6230113;22;20287;-92
2022/12/28 21:24:07;;;;;;;;;;;9.20;99.90;;;;;;6229908;22;20337;-95
2022/12/28 21:26:34;;;;;;;;;;;9.20;99.90;;;;;;6229525;22;19915;-94
2022/12/28 21:28:59;;;;;;;;;;;9.20;99.90;;;;;;6230065;22;19992;-94
2022/12/28 21:31:25;;;;;;;;;;;9.20;99.90;;;;;;6229376;22;19919;-94
2022/12/28 21:33:54;;;;;;;;;;;9.30;99.90;;;;;;6229874;22;19919;-93
2022/12/28 21:36:20;;;;;;;;;;;9.30;99.90;;;;;;6232590;22;19937;-91
2022/12/28 21:38:46;;;;;;;;;;;9.30;99.90;;;;;;6239782;22;19955;-91
2022/12/28 21:41:14;;;;;;;;;;;9.40;99.90;;;;;;6230768;22;19915;-95
2022/12/28 21:43:52;;;;;;;;;;;9.40;99.90;;;;;;6247315;22;19915;-93
2022/12/28 21:46:17;;;;;;;;;;;9.40;99.90;;;;;;6234727;22;20142;-94
2022/12/28 21:48:43;;;;;;;;;;;9.40;99.90;;;;;;6229745;22;19915;-92
2022/12/28 21:51:30;;;;;;;;;;;9.50;99.90;;;;;;6229761;22;20321;-92
2022/12/28 21:53:56;;;;;;;;;;;9.50;99.90;;;;;;6229639;22;19923;-92
2022/12/28 21:56:21;;;;;;;;;;;9.50;99.90;;;;;;6229862;22;20343;-93
2022/12/28 21:58:48;;;;;;;;;;;9.60;99.90;;;;;;6229434;22;19986;-93
